createdAt,value
2022-12-11T00:00:07.020Z,28.25
2022-12-11T00:02:33.851Z,31.00
2022-12-11T00:05:00.481Z,24.25
2022-12-11T00:07:27.170Z,32.00
2022-12-11T00:09:53.859Z,26.00
2022-12-11T00:12:20.329Z,25.00
2022-12-11T00:14:47.113Z,30.00
2022-12-11T00:17:13.521Z,30.25
2022-12-11T00:19:39.958Z,30.00
2022-12-11T00:22:07.641Z,30.33
2022-12-11T00:24:34.204Z,35.00
2022-12-11T00:35:21.694Z,33.75
2022-12-11T00:37:48.213Z,35.50
2022-12-11T00:40:14.905Z,32.00
2022-12-11T00:42:41.491Z,30.50
2022-12-11T00:45:08.362Z,31.00
2022-12-11T00:47:35.176Z,30.00
2022-12-11T00:50:01.828Z,24.25
2022-12-11T00:52:28.507Z,25.50
2022-12-11T00:54:55.116Z,28.50
2022-12-11T00:57:21.914Z,24.25
2022-12-11T00:59:48.573Z,26.00
2022-12-11T01:02:15.201Z,26.00
2022-12-11T01:07:31.846Z,26.50
2022-12-11T01:10:17.238Z,24.50
2022-12-11T01:12:43.746Z,20.75
2022-12-11T01:15:12.180Z,25.00
2022-12-11T01:17:38.994Z,24.75
2022-12-11T01:20:05.949Z,25.50
2022-12-11T01:22:32.591Z,26.75
2022-12-11T01:24:59.449Z,32.00
2022-12-11T01:27:26.257Z,29.00
2022-12-11T01:29:52.741Z,29.50
2022-12-11T01:32:19.396Z,27.00
2022-12-11T01:34:45.964Z,30.50
2022-12-11T01:37:12.501Z,25.00
2022-12-11T01:39:39.103Z,30.00
2022-12-11T01:42:10.376Z,30.25
2022-12-11T01:44:37.436Z,31.25
2022-12-11T01:47:03.939Z,33.25
2022-12-11T01:49:30.379Z,30.75
2022-12-11T01:52:01.128Z,28.50
2022-12-11T01:54:28.589Z,33.25
2022-12-11T01:56:58.764Z,31.50
2022-12-11T01:59:27.189Z,31.50
2022-12-11T02:02:03.212Z,25.00
2022-12-11T02:04:31.109Z,32.75
2022-12-11T02:06:57.709Z,28.00
2022-12-11T02:09:28.236Z,32.00
2022-12-11T02:12:12.136Z,33.00
2022-12-11T02:14:41.670Z,28.75
2022-12-11T02:17:21.760Z,33.00
2022-12-11T02:20:06.798Z,27.75
2022-12-11T02:22:52.214Z,30.00
2022-12-11T02:25:26.056Z,27.50
2022-12-11T02:28:17.220Z,29.00
2022-12-11T02:30:47.542Z,27.50
2022-12-11T02:33:15.641Z,30.00
2022-12-11T02:35:43.030Z,28.50
2022-12-11T02:38:15.510Z,24.25
2022-12-11T02:40:42.897Z,25.00
2022-12-11T02:43:11.429Z,24.50
2022-12-11T02:51:17.133Z,26.25
2022-12-11T02:53:44.636Z,30.75
2022-12-11T02:56:21.249Z,26.00
2022-12-11T02:58:58.691Z,30.25
2022-12-11T03:01:26.716Z,30.00
2022-12-11T03:03:54.494Z,28.50
2022-12-11T03:06:25.002Z,26.50
2022-12-11T03:08:52.216Z,27.00
2022-12-11T03:11:18.783Z,26.25
2022-12-11T03:13:48.898Z,27.00
2022-12-11T03:16:34.570Z,27.50
2022-12-11T03:19:19.847Z,28.50
2022-12-11T03:21:56.666Z,27.75
2022-12-11T03:24:29.651Z,20.50
2022-12-11T03:27:01.096Z,23.00
2022-12-11T03:29:36.420Z,22.00
2022-12-11T03:32:07.597Z,29.00
2022-12-11T03:34:41.894Z,27.75
2022-12-11T03:37:09.096Z,31.00
2022-12-11T03:39:42.004Z,23.50
2022-12-11T03:42:10.282Z,28.75
2022-12-11T03:44:37.140Z,24.75
2022-12-11T03:47:06.290Z,28.75
2022-12-11T03:49:37.893Z,28.25
2022-12-11T03:52:09.425Z,27.25
2022-12-11T03:54:36.445Z,28.25
2022-12-11T03:57:04.599Z,28.25
2022-12-11T03:59:31.315Z,30.75
2022-12-11T04:01:58.317Z,21.25
2022-12-11T04:04:28.366Z,24.00
2022-12-11T04:06:55.180Z,26.00
2022-12-11T04:09:21.755Z,21.50
2022-12-11T04:11:49.616Z,25.00
2022-12-11T04:14:35.028Z,21.00
2022-12-11T04:17:01.798Z,22.00
2022-12-11T04:19:46.979Z,19.50
2022-12-11T04:22:33.202Z,22.00
2022-12-11T04:25:00.387Z,22.25
2022-12-11T04:27:48.365Z,18.50
2022-12-11T04:30:16.819Z,19.00
2022-12-11T04:32:43.573Z,21.00
2022-12-11T04:35:10.637Z,23.00
2022-12-11T04:37:37.808Z,21.25
2022-12-11T04:40:06.119Z,18.75
2022-12-11T04:42:32.758Z,20.75
2022-12-11T04:44:59.396Z,22.50
2022-12-11T05:01:23.684Z,15.75
2022-12-11T05:12:09.692Z,24.00
2022-12-11T05:14:36.585Z,17.50
2022-12-11T05:17:03.401Z,22.75
2022-12-11T05:19:30.197Z,15.00
2022-12-11T05:21:56.859Z,18.25
2022-12-11T05:27:04.243Z,21.00
2022-12-11T05:29:30.792Z,20.50
2022-12-11T05:31:57.395Z,19.00
2022-12-11T05:34:24.257Z,16.00
2022-12-11T05:36:51.249Z,13.75
2022-12-11T05:39:17.760Z,20.50
2022-12-11T05:41:44.478Z,26.00
2022-12-11T05:44:14.199Z,15.75
2022-12-11T05:46:41.014Z,17.00
2022-12-11T05:49:08.246Z,19.25
2022-12-11T05:51:35.046Z,18.00
2022-12-11T05:54:01.930Z,18.00
2022-12-11T05:56:29.817Z,17.00
2022-12-11T05:58:56.946Z,18.50
2022-12-11T06:01:43.274Z,18.50
2022-12-11T06:04:11.146Z,16.75
2022-12-11T06:06:38.277Z,15.75
2022-12-11T06:09:05.496Z,19.00
2022-12-11T06:11:33.037Z,10.00
2022-12-11T06:14:00.668Z,16.00
2022-12-11T06:16:27.207Z,12.75
2022-12-11T06:18:58.002Z,20.75
2022-12-11T06:21:30.054Z,16.50
2022-12-11T06:23:57.787Z,17.50
2022-12-11T06:26:24.868Z,15.75
2022-12-11T06:28:51.947Z,17.25
2022-12-11T06:31:19.123Z,16.00
2022-12-11T06:33:46.293Z,18.00
2022-12-11T06:36:17.770Z,15.75
2022-12-11T06:41:26.018Z,22.50
2022-12-11T06:43:52.817Z,14.50
2022-12-11T06:46:20.211Z,14.50
2022-12-11T06:48:47.323Z,19.25
2022-12-11T06:51:15.408Z,21.50
2022-12-11T06:53:42.379Z,15.00
2022-12-11T06:56:10.147Z,12.00
2022-12-11T06:58:37.502Z,19.00
2022-12-11T07:01:04.871Z,21.00
2022-12-11T07:03:31.864Z,24.75
2022-12-11T07:06:02.504Z,17.25
2022-12-11T07:08:29.617Z,14.00
2022-12-11T07:11:02.322Z,13.50
2022-12-11T07:16:05.909Z,18.75
2022-12-11T07:18:32.799Z,15.00
2022-12-11T07:21:00.597Z,16.00
2022-12-11T07:28:43.728Z,21.25
2022-12-11T07:39:09.277Z,10.00
2022-12-11T07:41:36.173Z,15.75
2022-12-11T07:44:02.954Z,17.00
2022-12-11T07:46:30.981Z,15.00
2022-12-11T07:48:57.456Z,11.50
2022-12-11T07:51:28.403Z,12.50
2022-12-11T07:53:59.074Z,15.25
2022-12-11T07:56:26.168Z,16.25
2022-12-11T07:58:53.206Z,11.75
2022-12-11T08:01:26.067Z,18.00
2022-12-11T08:03:55.244Z,14.00
2022-12-11T08:06:25.771Z,15.75
2022-12-11T08:08:53.497Z,15.75
2022-12-11T08:14:02.476Z,27.50
2022-12-11T08:16:29.510Z,26.50
2022-12-11T08:21:42.788Z,16.50
2022-12-11T08:24:09.789Z,14.75
2022-12-11T08:26:36.626Z,24.50
2022-12-11T08:29:03.455Z,18.50
2022-12-11T08:31:30.686Z,21.50
2022-12-11T08:33:58.247Z,18.25
2022-12-11T08:36:25.791Z,22.00
2022-12-11T08:38:53.738Z,24.75
2022-12-11T08:41:24.962Z,21.00
2022-12-11T08:44:17.251Z,20.50
2022-12-11T08:46:43.706Z,19.00
2022-12-11T08:49:10.392Z,16.00
2022-12-11T08:51:37.114Z,19.50
2022-12-11T08:54:03.720Z,21.25
2022-12-11T08:56:30.519Z,18.00
2022-12-11T08:58:59.869Z,21.50
2022-12-11T09:01:27.013Z,20.00
2022-12-11T09:03:54.541Z,27.00
2022-12-11T09:06:22.101Z,18.00
2022-12-11T09:08:52.649Z,24.75
2022-12-11T09:11:21.660Z,30.00
2022-12-11T09:13:48.310Z,25.00
2022-12-11T09:16:16.074Z,32.00
2022-12-11T09:18:42.522Z,26.75
2022-12-11T09:21:11.664Z,30.00
2022-12-11T09:23:38.036Z,33.00
2022-12-11T09:26:06.137Z,30.00
2022-12-11T09:28:33.064Z,26.00
2022-12-11T09:30:59.865Z,22.50
2022-12-11T09:33:26.681Z,18.75
2022-12-11T09:36:03.819Z,21.00
2022-12-11T09:38:30.340Z,16.00
2022-12-11T09:40:56.914Z,12.75
2022-12-11T09:43:45.121Z,26.00
2022-12-11T09:46:12.794Z,22.00
2022-12-11T09:48:41.747Z,20.00
2022-12-11T09:51:28.408Z,32.00
2022-12-11T09:53:56.753Z,30.00
2022-12-11T09:56:32.248Z,22.00
2022-12-11T09:59:07.826Z,23.75
2022-12-11T10:01:52.176Z,23.00
2022-12-11T10:04:18.601Z,46.00
2022-12-11T10:06:47.988Z,30.00
2022-12-11T10:09:24.384Z,36.00
2022-12-11T10:11:59.057Z,39.25
2022-12-11T10:14:32.014Z,9.25
2022-12-11T10:17:10.837Z,23.50
2022-12-11T10:19:37.374Z,31.00
2022-12-11T10:22:03.933Z,39.50
2022-12-11T10:25:10.103Z,20.50
2022-12-11T10:27:31.492Z,33.00
2022-12-11T10:30:18.354Z,8.00
2022-12-11T10:32:52.811Z,33.00
2022-12-11T10:35:38.221Z,34.50
2022-12-11T10:38:11.953Z,40.00
2022-12-11T10:40:40.095Z,28.25
2022-12-11T10:43:06.567Z,27.25
2022-12-11T10:45:32.930Z,36.00
2022-12-11T10:48:03.649Z,33.25
2022-12-11T10:50:30.048Z,21.00
2022-12-11T10:52:57.369Z,38.50
2022-12-11T10:55:44.955Z,34.50
2022-12-11T10:58:19.661Z,30.75
2022-12-11T11:00:46.352Z,48.00
2022-12-11T11:03:26.691Z,28.50
2022-12-11T11:06:07.276Z,33.50
2022-12-11T11:08:42.168Z,34.00
2022-12-11T11:11:19.990Z,31.00
2022-12-11T11:13:46.608Z,33.00
2022-12-11T11:16:13.791Z,32.00
2022-12-11T11:18:41.190Z,34.00
2022-12-11T11:21:16.100Z,30.00
2022-12-11T11:23:46.304Z,28.50
2022-12-11T11:26:15.977Z,35.00
2022-12-11T11:28:47.612Z,28.75
2022-12-11T11:31:15.164Z,28.50
2022-12-11T11:34:03.290Z,30.00
2022-12-11T11:36:31.466Z,33.00
2022-12-11T11:39:03.766Z,34.00
2022-12-11T11:41:39.518Z,33.00
2022-12-11T11:44:07.387Z,31.00
2022-12-11T11:46:36.991Z,36.75
2022-12-11T11:49:13.423Z,35.00
2022-12-11T11:51:41.812Z,33.00
2022-12-11T11:54:15.329Z,33.00
2022-12-11T11:56:42.158Z,43.00
2022-12-11T11:59:15.677Z,35.00
2022-12-11T12:01:43.165Z,34.25
2022-12-11T12:04:09.805Z,32.00
2022-12-11T12:06:59.472Z,36.25
2022-12-11T12:09:25.976Z,42.00
2022-12-11T12:11:56.288Z,46.00
2022-12-11T12:17:31.588Z,41.50
2022-12-11T12:20:09.534Z,27.50
2022-12-11T12:22:45.356Z,28.00
2022-12-11T12:25:24.153Z,29.50
2022-12-11T12:27:52.436Z,24.25
2022-12-11T12:30:22.983Z,23.50
2022-12-11T12:33:02.365Z,27.25
2022-12-11T12:35:37.108Z,23.50
2022-12-11T12:38:03.458Z,26.75
2022-12-11T12:40:33.058Z,26.50
2022-12-11T12:43:11.709Z,27.00
2022-12-11T12:45:50.253Z,28.50
2022-12-11T12:48:17.228Z,24.75
2022-12-11T12:50:46.289Z,29.50
2022-12-11T12:53:20.976Z,29.00
2022-12-11T12:55:48.166Z,33.50
2022-12-11T12:58:27.081Z,30.00
2022-12-11T13:00:53.851Z,36.00
2022-12-11T13:03:22.261Z,30.00
2022-12-11T13:06:03.559Z,27.00
2022-12-11T13:08:35.027Z,27.75
2022-12-11T13:11:07.372Z,31.00
2022-12-11T13:13:33.805Z,25.25
2022-12-11T13:16:07.853Z,30.50
2022-12-11T13:18:36.084Z,33.00
2022-12-11T13:21:03.856Z,35.00
2022-12-11T13:23:31.797Z,29.00
2022-12-11T13:25:59.947Z,23.50
2022-12-11T13:28:55.776Z,24.00
2022-12-11T13:31:23.070Z,24.75
2022-12-11T13:33:51.046Z,0.00
2022-12-11T13:36:22.773Z,28.00
2022-12-11T13:38:53.614Z,20.25
2022-12-11T13:41:20.861Z,24.75
2022-12-11T13:43:48.933Z,33.75
2022-12-11T13:46:19.573Z,28.00
2022-12-11T13:48:47.844Z,26.25
2022-12-11T13:51:18.996Z,22.00
2022-12-11T13:53:45.518Z,18.75
2022-12-11T13:56:19.889Z,27.75
2022-12-11T13:58:47.143Z,34.00
2022-12-11T14:01:16.525Z,38.50
2022-12-11T14:03:49.125Z,30.50
2022-12-11T14:06:18.747Z,28.00
2022-12-11T14:08:48.336Z,31.25
2022-12-11T14:11:22.676Z,30.00
2022-12-11T14:13:50.227Z,28.00
2022-12-11T21:18:48.463Z,23.00
2022-12-11T21:21:15.869Z,30.75
2022-12-11T21:23:42.914Z,31.50
2022-12-11T21:26:10.335Z,34.50
2022-12-11T21:28:36.966Z,30.50
2022-12-11T21:31:05.536Z,32.50
2022-12-11T21:41:32.901Z,34.00
2022-12-11T21:45:25.969Z,34.50
2022-12-11T21:46:46.477Z,30.25
2022-12-11T21:49:12.955Z,26.00
2022-12-11T21:51:45.311Z,34.25
2022-12-11T21:54:14.465Z,15.50
2022-12-11T21:56:41.262Z,33.00
2022-12-11T21:59:07.802Z,31.50
2022-12-11T22:01:38.922Z,32.50
2022-12-11T22:04:05.612Z,29.75
2022-12-11T22:06:32.533Z,30.00
2022-12-11T22:08:58.968Z,30.00
2022-12-11T22:11:27.727Z,30.00
2022-12-11T22:13:54.165Z,31.25
2022-12-11T22:16:20.873Z,28.00
2022-12-11T22:18:47.477Z,28.50
2022-12-11T22:21:14.441Z,30.25
2022-12-11T22:23:41.619Z,30.00
2022-12-11T22:26:08.756Z,34.00
2022-12-11T22:28:35.385Z,30.00
2022-12-11T22:31:01.830Z,30.25
2022-12-11T22:33:28.368Z,31.75
2022-12-11T22:35:55.801Z,30.00
2022-12-11T22:38:22.245Z,23.75
2022-12-11T22:40:48.671Z,24.00
2022-12-11T22:43:15.169Z,28.00
2022-12-11T22:45:41.645Z,30.00
2022-12-11T22:48:08.825Z,28.50
2022-12-11T22:50:36.663Z,23.50
2022-12-11T22:53:03.337Z,29.00
2022-12-11T22:55:29.863Z,14.50
2022-12-11T22:57:56.380Z,19.50
2022-12-11T23:00:23.580Z,23.00
2022-12-11T23:02:50.100Z,25.75
2022-12-11T23:05:16.780Z,13.50
2022-12-11T23:07:43.399Z,22.50
2022-12-11T23:10:10.428Z,29.00
2022-12-11T23:12:36.822Z,30.00
2022-12-11T23:15:03.631Z,27.75
2022-12-11T23:17:30.240Z,22.75
2022-12-11T23:19:56.825Z,23.50
2022-12-11T23:22:23.208Z,26.50
2022-12-11T23:24:49.568Z,29.00
2022-12-11T23:27:15.941Z,23.25
2022-12-11T23:29:43.127Z,24.25
2022-12-11T23:32:09.488Z,28.00
2022-12-11T23:34:35.865Z,26.00
2022-12-11T23:37:02.395Z,19.75
2022-12-11T23:39:29.148Z,30.00
2022-12-11T23:41:55.522Z,29.00
2022-12-11T23:44:22.647Z,25.25
2022-12-11T23:46:49.073Z,23.50
2022-12-11T23:49:15.499Z,23.50
2022-12-11T23:51:41.915Z,24.00
2022-12-11T23:54:08.377Z,29.00
2022-12-11T23:56:34.981Z,22.00
2022-12-11T23:59:01.349Z,19.25
